createdAt,value
2022-11-05T00:01:39.592Z,67.25
2022-11-05T00:05:01.229Z,66.88
2022-11-05T00:08:23.947Z,67.76
2022-11-05T00:11:43.013Z,68.68
2022-11-05T00:15:04.141Z,68.19
2022-11-05T00:18:07.837Z,68.55
2022-11-05T00:21:25.421Z,69.34
2022-11-05T00:24:46.296Z,69.29
2022-11-05T00:27:52.661Z,69.25
2022-11-05T00:31:01.798Z,69.22
2022-11-05T00:34:05.924Z,69.80
2022-11-05T00:37:09.684Z,69.33
2022-11-05T00:40:15.078Z,70.01
2022-11-05T00:43:37.318Z,71.11
2022-11-05T00:46:41.168Z,71.05
2022-11-05T00:49:43.830Z,70.04
2022-11-05T00:52:58.055Z,70.00
2022-11-05T00:56:02.093Z,70.28
2022-11-05T00:59:07.082Z,70.34
2022-11-05T01:02:10.850Z,70.23
2022-11-05T01:05:14.799Z,69.82
2022-11-05T01:08:21.650Z,70.06
2022-11-05T01:11:37.362Z,69.31
2022-11-05T01:14:42.713Z,69.40
2022-11-05T01:17:46.162Z,69.18
2022-11-05T01:20:50.567Z,69.34
2022-11-05T01:23:54.433Z,69.24
2022-11-05T01:26:58.122Z,68.29
2022-11-05T01:30:03.022Z,67.54
2022-11-05T01:33:07.324Z,67.83
2022-11-05T01:36:11.417Z,67.43
2022-11-05T01:39:15.265Z,66.84
2022-11-05T01:42:21.870Z,67.77
2022-11-05T01:45:28.460Z,69.26
2022-11-05T01:48:36.403Z,67.83
2022-11-05T01:51:40.673Z,68.38
2022-11-05T01:54:44.937Z,68.67
2022-11-05T01:57:48.868Z,67.79
2022-11-05T02:00:55.836Z,67.98
2022-11-05T02:04:02.558Z,67.70
2022-11-05T02:07:08.959Z,68.08
2022-11-05T02:10:15.621Z,68.98
2022-11-05T02:13:19.150Z,70.54
2022-11-05T02:16:37.706Z,69.59
2022-11-05T02:20:09.520Z,69.72
2022-11-05T02:23:45.265Z,68.82
2022-11-05T02:27:16.115Z,68.50
2022-11-05T02:30:43.590Z,66.32
2022-11-05T02:33:57.065Z,66.91
2022-11-05T02:37:14.304Z,67.51
2022-11-05T02:40:23.951Z,68.37
2022-11-05T02:43:38.081Z,68.67
2022-11-05T02:46:50.282Z,68.25
2022-11-05T02:50:02.463Z,67.90
2022-11-05T02:53:12.249Z,67.47
2022-11-05T02:56:21.441Z,66.71
2022-11-05T02:59:24.835Z,66.67
2022-11-05T03:02:30.183Z,66.46
2022-11-05T03:05:45.503Z,66.68
2022-11-05T03:09:09.217Z,66.70
2022-11-05T03:12:25.173Z,66.17
2022-11-05T03:15:43.099Z,66.46
2022-11-05T03:18:57.826Z,66.89
2022-11-05T03:22:06.217Z,67.58
2022-11-05T03:25:13.655Z,67.68
2022-11-05T03:28:22.381Z,67.69
2022-11-05T03:31:26.432Z,67.71
2022-11-05T03:34:36.983Z,67.74
2022-11-05T03:37:44.227Z,68.11
2022-11-05T03:40:52.874Z,68.86
2022-11-05T03:43:59.851Z,69.10
2022-11-05T03:47:07.230Z,68.32
2022-11-05T03:50:21.337Z,68.70
2022-11-05T03:53:29.207Z,68.85
2022-11-05T03:56:38.895Z,69.32
2022-11-05T03:59:45.158Z,69.18
2022-11-05T04:02:48.642Z,69.33
2022-11-05T04:06:13.833Z,70.59
2022-11-05T04:09:35.130Z,70.84
2022-11-05T04:12:56.054Z,70.23
2022-11-05T04:16:16.625Z,70.01
2022-11-05T04:19:41.581Z,70.39
2022-11-05T04:23:03.696Z,71.18
2022-11-05T04:26:07.508Z,70.23
2022-11-05T04:29:37.085Z,70.66
2022-11-05T04:32:40.907Z,70.55
2022-11-05T04:35:46.270Z,70.54
2022-11-05T04:38:51.391Z,70.75
2022-11-05T04:41:54.743Z,70.29
2022-11-05T04:44:59.556Z,70.44
2022-11-05T04:48:03.677Z,70.27
2022-11-05T04:51:07.767Z,70.69
2022-11-05T04:54:12.601Z,71.87
2022-11-05T04:57:16.294Z,71.49
2022-11-05T05:00:21.082Z,71.67
2022-11-05T05:03:24.745Z,72.68
2022-11-05T05:06:28.325Z,73.69
2022-11-05T05:09:33.517Z,73.83
2022-11-05T05:12:36.891Z,73.88
2022-11-05T05:15:40.590Z,73.97
2022-11-05T05:18:46.409Z,73.67
2022-11-05T05:21:49.315Z,73.82
2022-11-05T05:24:54.390Z,74.64
2022-11-05T05:27:58.687Z,74.96
2022-11-05T05:31:02.328Z,74.00
2022-11-05T05:34:07.200Z,73.23
2022-11-05T05:37:10.535Z,73.25
2022-11-05T05:40:15.655Z,72.93
2022-11-05T05:43:19.146Z,72.34
2022-11-05T05:46:22.850Z,71.95
2022-11-05T05:49:26.191Z,71.69
2022-11-05T05:52:29.812Z,72.13
2022-11-05T05:55:34.630Z,72.81
2022-11-05T05:58:40.467Z,73.85
2022-11-05T06:01:44.094Z,72.63
2022-11-05T06:04:48.953Z,73.16
2022-11-05T06:07:57.130Z,72.12
2022-11-05T06:11:03.726Z,71.57
2022-11-05T06:14:07.341Z,70.69
2022-11-05T06:17:11.396Z,71.39
2022-11-05T06:20:14.815Z,71.25
2022-11-05T06:23:18.698Z,70.94
2022-11-05T06:26:23.700Z,71.19
2022-11-05T06:29:27.479Z,71.24
2022-11-05T06:32:32.132Z,70.71
2022-11-05T06:35:36.116Z,70.81
2022-11-05T06:38:39.855Z,70.89
2022-11-05T06:42:11.884Z,70.74
2022-11-05T06:45:10.590Z,70.02
2022-11-05T06:48:14.512Z,69.12
2022-11-05T06:51:18.073Z,70.39
2022-11-05T06:54:22.414Z,70.89
2022-11-05T06:57:27.735Z,70.62
2022-11-05T07:00:32.077Z,70.72
2022-11-05T07:03:36.454Z,69.81
2022-11-05T07:06:40.458Z,70.46
2022-11-05T07:09:44.884Z,70.14
2022-11-05T07:12:50.425Z,70.19
2022-11-05T07:16:12.579Z,71.04
2022-11-05T07:19:16.571Z,70.49
2022-11-05T07:22:20.041Z,70.00
2022-11-05T07:25:24.258Z,69.57
2022-11-05T07:28:29.105Z,69.85
2022-11-05T07:31:32.838Z,69.25
2022-11-05T07:34:36.439Z,68.89
2022-11-05T07:37:44.939Z,70.21
2022-11-05T07:40:48.356Z,69.72
2022-11-05T07:43:53.569Z,69.58
2022-11-05T07:47:00.806Z,70.07
2022-11-05T07:50:05.863Z,70.93
2022-11-05T07:53:12.624Z,69.90
2022-11-05T07:56:16.648Z,70.05
2022-11-05T07:59:21.602Z,69.93
2022-11-05T08:02:26.729Z,69.89
2022-11-05T08:05:31.934Z,69.76
2022-11-05T08:08:35.645Z,69.85
2022-11-05T08:11:40.036Z,69.75
2022-11-05T08:14:48.306Z,69.61
2022-11-05T08:17:52.237Z,69.22
2022-11-05T08:20:56.090Z,69.58
2022-11-05T08:23:59.661Z,69.90
2022-11-05T08:27:03.863Z,69.28
2022-11-05T08:30:10.794Z,69.59
2022-11-05T08:33:25.553Z,69.44
2022-11-05T08:36:29.294Z,69.50
2022-11-05T08:39:33.036Z,69.86
2022-11-05T08:42:37.317Z,69.15
2022-11-05T08:45:43.670Z,68.82
2022-11-05T08:48:47.401Z,69.27
2022-11-05T08:51:51.414Z,69.68
2022-11-05T08:54:55.874Z,69.89
2022-11-05T08:58:02.149Z,69.78
2022-11-05T09:01:10.041Z,69.82
2022-11-05T09:04:16.129Z,69.81
2022-11-05T09:07:19.811Z,69.83
2022-11-05T09:10:24.349Z,69.70
2022-11-05T09:13:28.111Z,69.12
2022-11-05T09:16:36.810Z,69.15
2022-11-05T09:19:40.365Z,69.48
2022-11-05T09:22:45.105Z,69.32
2022-11-05T09:25:52.702Z,69.27
2022-11-05T09:28:57.027Z,70.83
2022-11-05T09:32:03.367Z,71.96
2022-11-05T09:35:08.370Z,72.56
2022-11-05T09:38:13.342Z,72.64
2022-11-05T09:41:28.022Z,73.53
2022-11-05T09:44:41.648Z,72.97
2022-11-05T09:47:54.674Z,73.01
2022-11-05T09:50:59.726Z,72.67
2022-11-05T09:54:06.195Z,72.35
2022-11-05T09:57:15.585Z,72.31
2022-11-05T10:00:20.162Z,71.96
2022-11-05T10:03:26.845Z,72.05
2022-11-05T10:06:32.163Z,71.68
2022-11-05T10:09:40.943Z,71.51
2022-11-05T10:12:49.098Z,71.53
2022-11-05T10:16:01.597Z,71.07
2022-11-05T10:19:10.997Z,71.13
2022-11-05T10:22:17.321Z,71.27
2022-11-05T10:25:23.249Z,71.49
2022-11-05T10:28:28.282Z,71.25
2022-11-05T10:31:37.381Z,71.21
2022-11-05T10:34:43.612Z,70.89
2022-11-05T10:37:48.018Z,70.41
2022-11-05T10:41:01.461Z,70.33
2022-11-05T10:44:29.523Z,70.34
2022-11-05T10:48:05.484Z,71.85
2022-11-05T10:51:11.274Z,70.82
2022-11-05T10:54:20.785Z,71.00
2022-11-05T10:57:35.091Z,71.08
2022-11-05T11:00:38.993Z,70.74
2022-11-05T11:03:45.682Z,69.98
2022-11-05T11:06:52.754Z,70.51
2022-11-05T11:09:56.564Z,69.82
2022-11-05T11:13:00.377Z,70.96
2022-11-05T11:16:16.329Z,70.39
2022-11-05T11:19:31.314Z,70.75
2022-11-05T11:22:39.601Z,70.75
2022-11-05T11:25:54.040Z,71.53
2022-11-05T11:29:01.981Z,71.13
2022-11-05T11:32:05.780Z,70.75
2022-11-05T11:35:21.519Z,69.59
2022-11-05T11:38:30.809Z,70.33
2022-11-05T11:41:39.661Z,72.17
2022-11-05T11:44:46.320Z,71.83
2022-11-05T11:47:51.450Z,71.90
2022-11-05T11:50:56.182Z,72.40
2022-11-05T11:54:02.758Z,73.52
2022-11-05T11:57:22.499Z,73.01
2022-11-05T12:00:27.510Z,73.82
2022-11-05T12:03:36.949Z,74.43
2022-11-05T12:06:49.120Z,75.23
2022-11-05T12:10:11.453Z,74.39
2022-11-05T12:13:36.727Z,74.27
2022-11-05T12:17:09.634Z,74.00
2022-11-05T12:20:42.080Z,73.57
2022-11-05T12:24:01.409Z,72.98
2022-11-05T12:27:23.236Z,74.45
2022-11-05T12:30:27.087Z,73.07
2022-11-05T12:34:02.337Z,72.08
2022-11-05T12:37:23.719Z,72.16
2022-11-05T12:40:57.129Z,71.83
2022-11-05T12:44:16.934Z,70.55
2022-11-05T12:47:37.967Z,70.88
2022-11-05T12:50:49.393Z,70.12
2022-11-05T12:54:02.345Z,70.55
2022-11-05T12:57:09.360Z,70.52
2022-11-05T13:00:21.917Z,70.31
2022-11-05T13:03:39.658Z,69.82
2022-11-05T13:06:52.829Z,69.30
2022-11-05T13:10:04.537Z,68.66
2022-11-05T13:13:15.327Z,70.01
2022-11-05T13:16:28.303Z,68.31
2022-11-05T13:19:37.481Z,68.99
2022-11-05T13:22:45.683Z,70.05
2022-11-05T13:25:53.978Z,70.89
2022-11-05T13:29:05.903Z,69.41
2022-11-05T13:32:21.050Z,70.41
2022-11-05T13:35:29.370Z,70.87
2022-11-05T13:38:51.806Z,70.23
2022-11-05T13:42:26.697Z,69.50
2022-11-05T13:46:29.738Z,69.45
2022-11-05T13:50:00.436Z,70.31
2022-11-05T13:53:33.739Z,68.88
2022-11-05T13:56:57.515Z,68.50
2022-11-05T14:00:12.880Z,69.89
2022-11-05T14:03:22.232Z,71.42
2022-11-05T14:06:30.659Z,72.80
2022-11-05T14:09:37.951Z,71.74
2022-11-05T14:12:42.879Z,74.14
2022-11-05T14:16:04.132Z,73.47
2022-11-05T14:19:44.914Z,72.94
2022-11-05T14:22:50.383Z,70.88
2022-11-05T14:25:59.766Z,69.91
2022-11-05T14:29:27.388Z,70.35
2022-11-05T14:32:45.169Z,70.29
2022-11-05T14:35:48.643Z,70.54
2022-11-05T14:39:01.392Z,71.00
2022-11-05T14:42:13.443Z,71.85
2022-11-05T14:45:28.485Z,71.57
2022-11-05T14:48:40.432Z,71.76
2022-11-05T14:51:47.066Z,71.94
2022-11-05T14:54:55.917Z,70.95
2022-11-05T14:58:28.320Z,72.04
2022-11-05T15:01:54.765Z,71.08
2022-11-05T15:05:35.188Z,70.05
2022-11-05T15:08:53.322Z,70.88
2022-11-05T15:12:09.190Z,69.73
2022-11-05T15:15:22.470Z,69.70
2022-11-05T15:18:48.379Z,70.08
2022-11-05T15:21:54.385Z,69.93
2022-11-05T15:24:58.612Z,69.98
2022-11-05T15:28:11.280Z,71.53
2022-11-05T15:31:27.617Z,71.22
2022-11-05T15:34:33.398Z,70.38
2022-11-05T15:37:37.361Z,69.50
2022-11-05T15:41:02.072Z,69.38
2022-11-05T15:44:07.376Z,68.97
2022-11-05T15:47:18.963Z,68.82
2022-11-05T15:50:22.836Z,69.47
2022-11-05T15:53:51.502Z,70.63
2022-11-05T15:57:01.649Z,71.02
2022-11-05T16:00:16.708Z,71.97
2022-11-05T16:03:29.381Z,72.74
2022-11-05T16:06:40.490Z,72.88
2022-11-05T16:09:52.779Z,71.88
2022-11-05T16:12:56.421Z,71.98
2022-11-05T16:16:04.194Z,72.26
2022-11-05T16:19:40.132Z,71.45
2022-11-05T16:22:48.445Z,71.96
2022-11-05T16:25:52.374Z,70.26
2022-11-05T16:28:56.794Z,69.64
2022-11-05T16:32:04.294Z,70.42
2022-11-05T16:35:18.103Z,69.94
2022-11-05T16:38:22.163Z,69.88
2022-11-05T16:41:27.497Z,69.83
2022-11-05T16:44:34.210Z,69.98
2022-11-05T16:47:39.457Z,70.79
2022-11-05T16:50:43.848Z,71.44
2022-11-05T16:53:48.460Z,72.18
2022-11-05T16:56:51.837Z,71.78
2022-11-05T16:59:57.058Z,72.02
2022-11-05T17:03:01.917Z,71.74
2022-11-05T17:06:06.207Z,70.58
2022-11-05T17:09:09.659Z,70.92
2022-11-05T17:12:13.661Z,69.89
2022-11-05T17:15:19.713Z,69.77
2022-11-05T17:18:25.656Z,69.51
2022-11-05T17:21:29.458Z,70.76
2022-11-05T17:24:33.119Z,69.86
2022-11-05T17:27:36.594Z,70.42
2022-11-05T17:30:41.860Z,69.24
2022-11-05T17:33:47.019Z,70.27
2022-11-05T17:36:50.996Z,68.68
2022-11-05T17:39:54.367Z,69.87
2022-11-05T17:42:58.129Z,68.45
2022-11-05T17:46:04.482Z,68.25
2022-11-05T17:49:10.171Z,67.84
2022-11-05T17:52:32.355Z,68.37
2022-11-05T17:55:36.427Z,68.80
2022-11-05T17:58:58.155Z,68.97
2022-11-05T18:02:02.121Z,68.86
2022-11-05T18:05:08.195Z,68.38
2022-11-05T18:08:12.773Z,68.76
2022-11-05T18:11:16.489Z,69.69
2022-11-05T18:14:24.065Z,69.43
2022-11-05T18:17:28.021Z,69.60
2022-11-05T18:20:33.034Z,69.90
2022-11-05T18:23:36.487Z,69.38
2022-11-05T18:26:40.146Z,68.45
2022-11-05T18:29:43.499Z,69.03
2022-11-05T18:32:48.045Z,69.88
2022-11-05T18:35:52.953Z,72.70
2022-11-05T18:38:58.586Z,72.56
2022-11-05T18:42:01.907Z,71.71
2022-11-05T18:45:06.748Z,73.54
2022-11-05T18:48:11.522Z,73.76
2022-11-05T18:51:16.922Z,71.79
2022-11-05T18:54:20.442Z,72.67
2022-11-05T18:57:24.465Z,71.70
2022-11-05T19:00:27.942Z,70.46
2022-11-05T19:03:31.970Z,69.86
2022-11-05T19:06:37.830Z,69.79
2022-11-05T19:09:41.732Z,69.40
2022-11-05T19:12:45.046Z,69.82
2022-11-05T19:15:48.656Z,69.78
2022-11-05T19:18:52.199Z,69.82
2022-11-05T19:21:57.812Z,68.59
2022-11-05T19:25:01.367Z,70.26
2022-11-05T19:28:05.866Z,69.83
2022-11-05T19:31:11.945Z,69.76
2022-11-05T19:34:17.091Z,69.27
2022-11-05T19:37:21.878Z,69.66
2022-11-05T19:40:25.570Z,70.01
2022-11-05T19:43:29.142Z,69.04
2022-11-05T19:46:33.954Z,68.03
2022-11-05T19:49:37.410Z,67.60
2022-11-05T19:52:42.540Z,67.36
2022-11-05T19:55:46.070Z,66.65
2022-11-05T19:59:08.444Z,67.01
2022-11-05T20:02:16.182Z,65.95
2022-11-05T20:05:20.425Z,66.21
2022-11-05T20:08:25.201Z,65.71
2022-11-05T20:11:28.972Z,66.01
2022-11-05T20:14:33.302Z,66.26
2022-11-05T20:17:39.186Z,66.53
2022-11-05T20:20:42.605Z,66.72
2022-11-05T20:23:48.485Z,65.99
2022-11-05T20:26:52.077Z,65.27
2022-11-05T20:29:55.751Z,66.74
2022-11-05T20:32:59.481Z,67.14
2022-11-05T20:36:05.333Z,69.05
2022-11-05T20:39:12.040Z,67.75
2022-11-05T20:42:15.779Z,67.55
2022-11-05T20:45:19.470Z,68.67
2022-11-05T20:48:23.089Z,68.34
2022-11-05T20:51:26.523Z,67.44
2022-11-05T20:54:31.573Z,67.09
2022-11-05T20:57:35.046Z,66.91
2022-11-05T21:00:39.178Z,66.47
2022-11-05T21:03:42.493Z,65.87
2022-11-05T21:06:46.121Z,65.90
2022-11-05T21:09:51.115Z,65.83
2022-11-05T21:12:54.818Z,65.92
2022-11-05T21:15:59.976Z,65.77
2022-11-05T21:19:03.675Z,66.55
2022-11-05T21:22:07.862Z,66.97
2022-11-05T21:25:14.202Z,66.73
2022-11-05T21:28:17.773Z,66.68
2022-11-05T21:31:21.479Z,67.28
2022-11-05T21:34:25.278Z,67.54
2022-11-05T21:37:29.199Z,67.21
2022-11-05T21:40:34.073Z,66.81
2022-11-05T21:43:39.466Z,67.11
2022-11-05T21:46:42.945Z,66.99
2022-11-05T21:49:46.963Z,66.87
2022-11-05T21:53:08.534Z,67.72
2022-11-05T21:56:36.892Z,67.77
2022-11-05T21:59:51.409Z,67.51
2022-11-05T22:02:55.315Z,67.89
2022-11-05T22:05:58.723Z,67.68
2022-11-05T22:09:02.519Z,68.24
2022-11-05T22:12:07.727Z,67.66
2022-11-05T22:15:12.102Z,67.94
2022-11-05T22:18:15.709Z,68.69
2022-11-05T22:21:20.046Z,68.34
2022-11-05T22:24:24.226Z,68.74
2022-11-05T22:27:29.506Z,68.55
2022-11-05T22:30:34.567Z,67.55
2022-11-05T22:33:38.418Z,68.63
2022-11-05T22:36:42.225Z,67.79
2022-11-05T22:39:46.229Z,67.92
2022-11-05T22:42:51.094Z,67.06
2022-11-05T22:45:54.757Z,66.79
2022-11-05T22:48:58.538Z,66.60
2022-11-05T22:52:02.254Z,66.72
2022-11-05T22:55:06.336Z,67.85
2022-11-05T22:58:11.939Z,67.33
2022-11-05T23:01:16.349Z,67.74
2022-11-05T23:04:20.348Z,68.35
2022-11-05T23:07:40.838Z,68.70
2022-11-05T23:11:02.196Z,69.61
2022-11-05T23:14:08.449Z,69.31
2022-11-05T23:17:29.283Z,68.53
2022-11-05T23:20:49.826Z,67.99
2022-11-05T23:24:05.248Z,68.27
2022-11-05T23:27:08.785Z,67.85
2022-11-05T23:30:18.545Z,67.27
2022-11-05T23:33:20.987Z,67.41
2022-11-05T23:36:42.077Z,67.51
2022-11-05T23:39:45.565Z,67.30
2022-11-05T23:43:07.274Z,66.81
2022-11-05T23:46:34.791Z,66.69
2022-11-05T23:49:38.512Z,66.85
2022-11-05T23:52:41.914Z,67.03
2022-11-05T23:55:45.707Z,69.30
2022-11-05T23:58:49.040Z,70.74
